Latest Weather Observations for Birdsville

IDQ60801

Issued at 11:32 pm EST Thursday 29 June 2017 (issued every 30 minutes, with the page automatically refreshed every 10 minutes)

About weather observations | Map of weather stations | Latest weather observations for QLD | Other Formats
Station Details ID: 038026 Name: BIRDSVILLE AIRPORT Lat: -25.90 Lon: 139.35 Height: 46.6 m
Data from the previous 72 hours. | See also: Recent months at Birdsville
Date/Time
EST
Temp
°C
App
Temp
°C
Dew
Point
°C
Rel
Hum
%
Delta-T
°C
Wind Press
QNH
hPa
Press
MSL
hPa
Rain since
9am
mm
Dir  Spd
km/h
Gust
km/h
Spd
kts
Gust
kts
29/11:30pm 8.5 4.2 3.4 70 2.2 SSW 15 15 8 8 1028.3 1028.3 0.0
29/11:00pm 8.9 5.0 3.3 68 2.4 SSW 13 15 7 8 1028.4 1028.4 0.0
29/10:30pm 9.7 5.8 3.4 65 2.7 SSW 13 15 7 8 1028.5 1028.5 0.0
29/10:00pm 11.4 7.0 4.6 63 3.1 SSW 17 20 9 11 1028.5 1028.5 0.0
29/09:30pm 11.8 7.4 5.0 63 3.1 S 17 20 9 11 1028.5 1028.5 0.0
29/09:00pm 12.1 7.7 4.6 60 3.4 SSW 17 20 9 11 1028.4 1028.4 0.0
29/08:30pm 12.8 8.4 4.8 58 3.7 S 17 20 9 11 1028.2 1028.2 0.0
29/08:00pm 13.0 8.4 3.9 54 4.1 SSW 17 19 9 10 1028.0 1028.0 0.0
29/07:30pm 13.7 8.8 4.0 52 4.4 SSW 19 22 10 12 1027.7 1027.7 0.0
29/07:00pm 14.4 9.3 4.1 50 4.7 S 20 24 11 13 1027.4 1027.4 0.0
29/06:30pm 15.1 9.2 3.9 47 5.2 S 24 32 13 17 1026.8 1026.8 0.0
29/06:00pm 15.7 9.0 3.5 44 5.6 SSW 28 39 15 21 1026.4 1026.4 0.0
29/05:30pm 16.4 8.8 4.1 44 5.7 SSW 33 43 18 23 1026.2 1026.2 0.0
29/05:00pm 16.8 9.3 4.2 43 5.9 S 33 39 18 21 1025.8 1025.8 0.0
29/04:30pm 17.0 9.4 4.0 42 6.1 SSW 33 46 18 25 1025.5 1025.5 0.0
29/04:00pm 17.4 9.3 3.3 39 6.5 SSW 35 43 19 23 1025.4 1025.4 0.0
29/03:30pm 17.1 8.3 3.8 41 6.2 SSW 39 48 21 26 1025.4 1025.4 0.0
29/03:00pm 17.2 9.5 2.4 37 6.7 SSW 32 43 17 23 1025.2 1025.2 0.0
29/02:30pm 16.8 8.9 4.2 43 5.9 SSW 35 44 19 24 1025.3 1025.3 0.0
29/02:00pm 17.0 8.9 3.0 39 6.4 SW 35 46 19 25 1025.3 1025.3 0.0
29/01:30pm 17.2 9.7 4.2 42 6.1 SSW 33 44 18 24 1025.6 1025.6 0.0
29/01:00pm 17.1 9.7 4.8 44 5.8 SSW 33 46 18 25 1025.9 1025.9 0.0
29/12:30pm 16.7 8.9 6.5 51 5.0 SSW 37 48 20 26 1026.2 1026.2 0.0
29/12:00pm 16.4 10.1 7.3 55 4.5 SSW 30 37 16 20 1026.6 1026.6 0.0
29/11:30am 15.7 9.7 7.2 57 4.2 SSW 28 35 15 19 1026.9 1026.9 0.0
29/11:00am 15.3 9.9 8.1 62 3.6 SSW 26 32 14 17 1027.1 1027.1 0.0
29/10:30am 14.3 8.6 8.5 68 2.9 SSW 28 35 15 19 1027.3 1027.3 0.0
29/10:00am 12.9 7.5 8.2 73 2.3 SSW 26 33 14 18 1027.5 1027.5 0.0
29/09:30am 11.7 7.1 8.2 79 1.7 SSW 22 30 12 16 1027.2 1027.2 0.0
29/09:00am 10.5 6.4 7.9 84 1.3 SW 19 22 10 12 1027.0 1027.0 0.0
29/08:30am 9.5 5.8 7.9 90 0.8 SW 17 22 9 12 1026.5 1026.5 0.0
29/08:00am 8.5 5.1 7.6 94 0.4 SW 15 17 8 9 1026.0 1026.0 0.0
29/07:30am 8.2 5.1 7.3 94 0.4 SW 13 17 7 9 1025.5 1025.5 0.0
29/07:00am 8.4 5.0 7.5 94 0.4 SW 15 19 8 10 1025.2 1025.2 0.0
29/06:30am 8.6 5.2 7.8 95 0.4 SW 15 20 8 11 1024.9 1024.9 0.0
29/06:00am 8.9 5.6 8.0 94 0.4 SW 15 17 8 9 1024.7 1024.7 0.0
29/05:30am 9.3 5.7 8.4 94 0.4 SW 17 19 9 10 1024.5 1024.5 0.0
29/05:00am 9.9 6.5 9.0 94 0.4 SW 17 19 9 10 1024.4 1024.4 0.0
29/04:30am 10.1 7.4 9.0 93 0.5 SW 13 15 7 8 1024.4 1024.4 0.0
29/04:00am 10.5 7.9 9.3 92 0.6 SW 13 15 7 8 1024.4 1024.4 0.0
29/03:30am 11.2 7.5 9.6 90 0.8 SW 19 22 10 12 1024.2 1024.2 0.0
29/03:00am 11.5 8.2 9.6 88 1.0 SW 17 20 9 11 1024.4 1024.4 0.0
29/02:30am 12.0 8.8 10.1 88 1.0 SW 17 20 9 11 1024.2 1024.2 0.0
29/02:00am 12.6 9.5 10.3 86 1.2 SSW 17 20 9 11 1024.2 1024.2 0.0
29/01:30am 13.2 9.6 10.6 84 1.4 SSW 20 26 11 14 1024.0 1024.0 0.0
29/01:00am 13.6 10.1 10.8 83 1.5 SSW 20 26 11 14 1024.0 1024.0 0.0
29/12:30am 13.8 10.0 11.0 83 1.5 SSW 22 30 12 16 1024.3 1024.3 0.0
29/12:00am 13.9 10.5 11.2 84 1.4 SW 20 24 11 13 1024.3 1024.3 0.0
 
Date/Time
EST
Temp
°C
App
Temp
°C
Dew
Point
°C
Rel
Hum
%
Delta-T
°C
Wind Press
QNH
hPa
Press
MSL
hPa
Rain since
9am
mm
Dir  Spd
km/h
Gust
km/h
Spd
kts
Gust
kts
28/11:30pm 13.8 10.7 11.7 87 1.1 SSW 19 22 10 12 1024.2 1024.2 0.0
28/11:00pm 13.7 11.0 11.6 87 1.1 SSW 17 20 9 11 1024.4 1024.4 0.0
28/10:30pm 13.7 10.4 11.6 87 1.1 SSW 20 26 11 14 1024.3 1024.3 0.0
28/10:00pm 14.2 10.2 11.9 86 1.2 SSW 24 30 13 16 1023.9 1023.9 0.0
28/09:30pm 14.3 10.4 12.0 86 1.2 SSW 24 32 13 17 1023.9 1023.9 0.0
28/09:00pm 14.5 10.6 12.2 86 1.2 SSW 24 30 13 16 1023.7 1023.7 0.0
28/08:30pm 15.0 10.8 12.3 84 1.5 SSW 26 33 14 18 1023.6 1023.6 0.0
28/08:00pm 15.0 10.8 12.5 85 1.4 SSW 26 32 14 17 1023.1 1023.1 0.0
28/07:30pm 14.9 11.6 12.8 87 1.2 SSW 22 28 12 15 1023.0 1023.0 0.0
28/07:00pm 15.1 11.0 12.8 86 1.3 SSW 26 33 14 18 1022.3 1022.3 0.0
28/06:30pm 15.7 11.2 12.5 81 1.8 SSW 28 35 15 19 1022.2 1022.2 0.0
28/06:00pm 15.8 11.3 12.5 81 1.8 SSW 28 37 15 20 1021.8 1021.8 0.0
28/05:30pm 15.9 11.5 13.0 83 1.6 SSW 28 35 15 19 1021.4 1021.4 0.0
28/05:00pm 15.9 11.7 13.4 85 1.4 SSW 28 33 15 18 1021.0 1021.0 0.0
28/04:30pm 16.7 11.3 12.3 75 2.4 SSW 32 41 17 22 1020.5 1020.5 0.0
28/04:00pm 17.8 11.9 12.5 71 2.9 SSW 35 43 19 23 1020.5 1020.5 0.0
28/03:30pm 19.0 13.6 12.3 65 3.7 SSW 32 39 17 21 1020.3 1020.3 0.0
28/03:00pm 19.0 13.4 11.6 62 4.1 S 32 41 17 22 1019.8 1019.8 0.0
28/02:30pm 19.6 14.1 11.9 61 4.3 S 32 39 17 21 1019.8 1019.8 0.0
28/02:00pm 19.6 14.1 12.6 64 3.9 SSW 33 39 18 21 1019.9 1019.9 0.0
28/01:30pm 20.2 15.3 12.4 61 4.4 SSW 30 37 16 20 1020.2 1020.2 0.0
28/01:00pm 20.5 16.2 12.0 58 4.7 S 26 33 14 18 1020.7 1020.7 0.0
28/12:30pm 20.1 16.0 11.6 58 4.7 S 24 33 13 18 1020.9 1020.9 0.0
28/12:00pm 19.7 15.5 11.2 58 4.6 SSE 24 32 13 17 1021.1 1021.1 0.0
28/11:30am 19.7 15.5 11.2 58 4.7 SSE 24 32 13 17 1021.3 1021.3 0.0
28/11:00am 18.8 14.7 11.4 62 4.0 SSE 24 32 13 17 1021.1 1021.1 0.0
28/10:30am 17.9 14.6 11.5 66 3.5 SSE 20 28 11 15 1021.1 1021.1 0.0
28/10:00am 17.3 14.4 12.4 73 2.7 S 19 24 10 13 1021.3 1021.3 0.0
28/09:30am 16.3 13.2 12.3 77 2.2 S 20 26 11 14 1021.0 1021.0 0.0
28/09:00am 15.3 12.1 11.9 80 1.8 SSE 20 26 11 14 1020.5 1020.5 0.0
28/08:30am 15.1 12.0 11.7 80 1.8 S 19 24 10 13 1020.6 1020.6 0.0
28/08:00am 14.4 11.9 11.0 80 1.8 S 15 19 8 10 1020.3 1020.3 0.0
28/07:30am 15.0 12.5 11.0 77 2.1 SSE 15 17 8 9 1020.1 1020.1 0.0
28/07:00am 15.1 12.6 10.9 76 2.2 SSE 15 20 8 11 1019.9 1019.9 0.0
28/06:30am 15.4 12.5 11.0 75 2.3 SE 17 22 9 12 1019.3 1019.2 0.0
28/06:00am 15.4 12.1 11.0 75 2.3 SE 19 24 10 13 1019.1 1019.0 0.0
28/05:30am 15.5 11.6 10.9 74 2.5 SE 22 30 12 16 1019.1 1019.0 0.0
28/05:00am 15.8 10.8 10.8 72 2.7 SE 28 37 15 20 1018.7 1018.6 0.0
28/04:30am 15.6 11.0 11.0 74 2.5 SSE 26 33 14 18 1019.2 1019.1 0.0
28/04:00am 15.3 9.5 10.9 75 2.3 SE 32 44 17 24 1019.1 1019.0 0.0
28/03:30am 15.5 10.9 10.9 74 2.5 SSE 26 33 14 18 1019.6 1019.5 0.0
28/03:00am 15.4 10.5 11.2 76 2.2 SSE 28 37 15 20 1019.6 1019.5 0.0
28/02:30am 15.3 9.7 11.5 78 2.0 SSE 32 46 17 25 1019.3 1019.2 0.0
28/02:00am 15.2 9.7 11.8 80 1.8 SSE 32 41 17 22 1019.3 1019.2 0.0
28/01:30am 15.7 10.9 11.7 77 2.2 SSE 28 41 15 22 1020.0 1020.0 0.0
28/01:00am 16.1 11.3 11.5 74 2.5 S 28 35 15 19 1020.3 1020.3 0.0
28/12:30am 16.3 11.4 11.2 72 2.7 SSE 28 39 15 21 1019.9 1019.9 0.0
28/12:00am 16.3 11.5 11.5 73 2.6 SSE 28 39 15 21 1020.0 1020.0 0.0
 
Date/Time
EST
Temp
°C
App
Temp
°C
Dew
Point
°C
Rel
Hum
%
Delta-T
°C
Wind Press
QNH
hPa
Press
MSL
hPa
Rain since
9am
mm
Dir  Spd
km/h
Gust
km/h
Spd
kts
Gust
kts
27/11:30pm 16.4 10.8 11.6 73 2.6 SSE 32 43 17 23 1020.2 1020.2 0.0
27/11:00pm 16.8 11.1 11.3 70 3.0 SSE 32 44 17 24 1020.1 1020.1 0.0
27/10:35pm 17.1 10.8 10.9 67 3.3 S 35 54 19 29 1019.9 1019.9 0.0
27/10:30pm 17.2 10.4 10.8 66 3.4 S 37 50 20 27 1019.9 1019.9 0.0
27/10:00pm 17.8 9.7 9.9 60 4.2 S 43 57 23 31 1019.9 1019.9 0.0
27/09:30pm 18.8 11.8 8.5 51 5.3 S 35 46 19 25 1019.8 1019.8 0.0
27/09:00pm 19.0 10.8 8.1 49 5.6 S 41 56 22 30 1019.5 1019.4 0.0
27/08:30pm 19.6 10.9 7.7 46 6.1 S 43 54 23 29 1019.0 1018.9 0.0
27/08:07pm 20.5 14.4 6.5 40 7.1 SSW 28 50 15 27 1018.5 1018.4 0.0
27/08:00pm 22.8 17.4 4.3 30 9.1 S 22 28 12 15 1018.3 1018.2 0.0
27/07:30pm 23.1 18.1 3.6 28 9.5 S 19 22 10 12 1017.7 1017.6 0.0
27/07:00pm 23.1 18.9 3.6 28 9.5 ESE 15 17 8 9 1017.1 1017.0 0.0
27/06:30pm 23.6 19.7 3.5 27 9.8 ESE 13 15 7 8 1016.9 1016.8 0.0
27/06:00pm 24.2 20.7 3.5 26 10.1 ESE 11 13 6 7 1017.0 1016.9 0.0
27/05:30pm 24.6 21.9 3.8 26 10.3 ESE 7 11 4 6 1016.8 1016.7 0.0
27/05:00pm 25.0 21.5 3.6 25 10.5 E 11 13 6 7 1016.6 1016.5 0.0
27/04:30pm 25.2 21.0 3.8 25 10.6 E 15 19 8 10 1016.3 1016.2 0.0
27/04:00pm 25.9 21.7 3.8 24 11.0 E 15 20 8 11 1016.2 1016.1 0.0
27/03:30pm 25.5 21.2 3.5 24 10.9 ENE 15 24 8 13 1016.3 1016.2 0.0
27/03:00pm 25.6 21.1 4.1 25 10.7 E 17 22 9 12 1016.2 1016.1 0.0
27/02:30pm 25.1 20.5 3.7 25 10.6 ESE 17 22 9 12 1016.7 1016.6 0.0
27/02:00pm 25.0 20.6 4.7 27 10.2 E 17 24 9 13 1016.9 1016.8 0.0
27/01:30pm 23.4 18.6 4.4 29 9.4 E 19 24 10 13 1017.4 1017.3 0.0
27/01:00pm 22.7 17.2 4.2 30 9.1 E 22 30 12 16 1018.0 1017.9 0.0
27/12:30pm 22.2 17.1 4.3 31 8.8 E 20 28 11 15 1018.8 1018.7 0.0
27/12:00pm 21.3 15.9 4.4 33 8.2 ESE 22 28 12 15 1019.3 1019.2 0.0
27/11:30am 20.7 15.8 5.1 36 7.7 ESE 20 26 11 14 1020.0 1020.0 0.0
27/11:00am 19.7 14.7 4.6 37 7.3 SE 20 26 11 14 1020.5 1020.5 0.0
27/10:30am 19.1 14.1 4.8 39 6.9 SE 20 26 11 14 1020.8 1020.8 0.0
27/10:00am 18.8 14.0 4.9 40 6.7 SE 19 24 10 13 1020.8 1020.8 0.0
27/09:30am 17.8 13.5 5.1 43 6.1 ESE 17 22 9 12 1020.6 1020.6 0.0
27/09:00am 17.0 12.8 5.6 47 5.5 ESE 17 20 9 11 1020.3 1020.3 0.0
27/08:30am 16.5 12.6 5.5 48 5.3 ESE 15 22 8 12 1020.3 1020.3 0.0
27/08:00am 16.0 11.8 5.6 50 5.0 ESE 17 20 9 11 1020.2 1020.2 0.0
27/07:30am 15.9 11.1 5.8 51 4.9 SE 20 26 11 14 1020.2 1020.2 0.0
27/07:00am 15.8 11.2 6.3 53 4.6 SE 20 24 11 13 1020.1 1020.1 0.0
27/06:30am 15.9 11.4 6.3 53 4.7 SE 19 24 10 13 1020.0 1020.0 0.0
27/06:00am 15.9 11.5 6.6 54 4.5 SE 19 24 10 13 1019.8 1019.8 0.0
27/05:30am 16.0 12.1 7.0 55 4.4 SSE 17 22 9 12 1020.3 1020.3 0.0
27/05:00am 15.9 11.6 7.1 56 4.3 SSE 19 24 10 13 1020.4 1020.4 0.0
27/04:30am 16.2 11.9 7.2 55 4.5 SSE 19 24 10 13 1020.7 1020.7 0.0
27/04:00am 16.4 12.1 6.8 53 4.7 SSE 19 24 10 13 1020.4 1020.4 0.0
27/03:30am 16.7 12.1 6.5 51 5.0 SE 20 26 11 14 1020.0 1020.0 0.0
27/03:00am 16.7 12.1 6.5 51 5.0 SSE 20 30 11 16 1020.5 1020.5 0.0
27/02:30am 16.9 12.2 6.1 49 5.3 SSE 20 26 11 14 1020.3 1020.3 0.0
27/02:00am 17.1 12.6 6.0 48 5.4 SSE 19 28 10 15 1020.8 1020.8 0.0
27/01:30am 17.4 12.8 5.7 46 5.7 S 19 24 10 13 1021.0 1021.0 0.0
27/01:00am 17.6 13.4 5.5 45 5.8 SSE 17 24 9 13 1020.6 1020.6 0.0
27/12:30am 17.9 13.7 5.5 44 6.0 SSE 17 20 9 11 1021.3 1021.3 0.0
27/12:00am 17.9 13.2 5.2 43 6.1 SSE 19 22 10 12 1021.3 1021.3 0.0

Other Formats:

Comma delimited format used in spreadsheet applications
http://www.bom.gov.au/fwo/IDQ60801/IDQ60801.95482.axf

JavaScript Object Notation format (JSON) in row-major order
http://www.bom.gov.au/fwo/IDQ60801/IDQ60801.95482.json